Agudo, Spain
Current Conditions -  °F | °C
As of 1:00 PM on Thursday 23 Oct 2014 (Local Time) from LEAO Reporting Station
Clear Clear  
Wind Chill: 66°   Ceiling: Unl
Heat Index: 66°   Visibility: 6mi
Dew Point: 34°   Wind: 2mph
Humidity: 30%   Direction: NA
Pressure: 30.27"   Gusts: NA
Location:  38.98°N, 4.87°W
Report Text: LEAO 231100Z VRB02KT CAVOK 19/01 Q1025
Loading
Personal Weather Stations






























Interactive Weather Map
Tropical Storm Tracking
New forecast layout! Learn more

10-Day Weather Forecast

Advertisements
Track Severe Weather on mobile